Time;durP1;ratioP1;P1;durP2;ratioP2;P2;SDS_P1;SDS_P2;PMS_P1;PMS_P2;Temp;Humidity;BMP_temperature;BMP_pressure;BME280_temperature;BME280_humidity;BME280_pressure;Samples;Min_cycle;Max_cycle;Signal;HPM_P1;HPM_P2
2022/01/09 00:01:48;;;;;;;78.50;14.43;;;29.70;71.30;;;;;;5058569;28;20039;-53
2022/01/09 00:04:15;;;;;;;114.10;15.35;;;29.70;71.50;;;;;;5056625;28;20027;-52
2022/01/09 00:06:45;;;;;;;56.40;13.05;;;29.70;71.90;;;;;;5066317;28;20037;-52
2022/01/09 00:09:13;;;;;;;74.05;14.48;;;29.60;71.60;;;;;;5066198;28;20083;-52
2022/01/09 00:11:40;;;;;;;51.95;12.77;;;29.60;71.70;;;;;;5065659;28;20055;-54
2022/01/09 00:14:07;;;;;;;75.03;13.55;;;29.60;71.60;;;;;;5060033;28;20024;-61
2022/01/09 00:16:36;;;;;;;65.38;12.43;;;29.60;71.50;;;;;;5058945;28;20043;-50
2022/01/09 00:19:06;;;;;;;237.95;20.30;;;29.60;71.80;;;;;;5063879;28;20017;-57
2022/01/09 00:21:32;;;;;;;87.60;13.10;;;29.60;71.80;;;;;;5065601;28;20025;-59
2022/01/09 00:23:59;;;;;;;112.07;14.27;;;29.60;71.90;;;;;;5064323;28;20250;-62
2022/01/09 00:26:26;;;;;;;84.47;13.10;;;29.50;72.00;;;;;;5065388;28;20294;-54
2022/01/09 00:28:53;;;;;;;60.92;12.00;;;29.50;72.00;;;;;;5063528;28;20207;-51
2022/01/09 00:31:22;;;;;;;47.20;11.48;;;29.50;71.80;;;;;;5064430;28;20036;-56
2022/01/09 00:33:49;;;;;;;49.53;10.77;;;29.50;71.90;;;;;;5062595;28;20651;-51
2022/01/09 00:36:16;;;;;;;37.45;11.68;;;29.50;71.90;;;;;;5058568;28;20029;-52
2022/01/09 00:38:43;;;;;;;24.08;10.80;;;29.40;71.90;;;;;;5059127;28;20043;-55
2022/01/09 00:41:10;;;;;;;26.85;9.35;;;29.40;71.80;;;;;;5051899;28;20025;-53
2022/01/09 00:43:40;;;;;;;30.10;10.13;;;29.40;71.80;;;;;;5067745;28;20017;-55
2022/01/09 00:46:06;;;;;;;70.55;22.67;;;29.30;71.80;;;;;;5082323;28;20334;-52
2022/01/09 00:48:48;;;;;;;219.82;24.45;;;29.40;71.90;;;;;;5067110;28;20029;-51
2022/01/09 00:51:36;;;;;;;82.15;13.65;;;29.30;71.90;;;;;;5063715;28;20310;-52
2022/01/09 00:54:04;;;;;;;56.55;12.38;;;29.30;72.00;;;;;;5038416;28;20029;-53
2022/01/09 00:56:30;;;;;;;71.63;12.38;;;29.30;72.00;;;;;;5046599;28;20044;-55
2022/01/09 00:59:08;;;;;;;40.67;10.60;;;29.30;72.10;;;;;;5046101;28;20017;-56
2022/01/09 01:01:35;;;;;;;45.70;10.45;;;29.30;72.10;;;;;;5045257;28;20031;-51
2022/01/09 01:04:02;;;;;;;43.85;10.63;;;29.30;71.90;;;;;;5044855;28;20030;-52
2022/01/09 01:06:29;;;;;;;37.67;10.25;;;29.30;71.90;;;;;;5046012;28;20088;-53
2022/01/09 01:08:56;;;;;;;60.22;11.15;;;29.20;71.70;;;;;;5060290;28;20035;-52
2022/01/09 01:11:23;;;;;;;80.93;12.75;;;29.20;71.90;;;;;;5060366;28;20096;-54
2022/01/09 01:13:50;;;;;;;85.40;13.07;;;29.20;71.80;;;;;;5063731;28;20017;-54
2022/01/09 01:16:17;;;;;;;77.22;11.20;;;29.20;71.80;;;;;;5047692;28;20101;-52
2022/01/09 01:18:45;;;;;;;33.58;9.85;;;29.20;72.00;;;;;;5055258;28;20016;-50
2022/01/09 01:21:12;;;;;;;36.40;9.90;;;29.10;71.90;;;;;;5056150;28;20328;-53
2022/01/09 01:23:39;;;;;;;38.33;10.63;;;29.10;72.40;;;;;;5030123;28;20025;-59
2022/01/09 01:26:06;;;;;;;29.33;9.93;;;29.10;71.70;;;;;;5064034;28;20017;-47
2022/01/09 01:28:33;;;;;;;27.92;9.38;;;29.10;71.60;;;;;;5064011;28;20318;-52
2022/01/09 01:31:00;;;;;;;23.48;9.85;;;29.10;71.40;;;;;;5063966;28;20024;-51
2022/01/09 01:33:26;;;;;;;20.55;8.65;;;29.10;71.50;;;;;;5063885;28;20047;-52
2022/01/09 01:35:53;;;;;;;18.20;8.98;;;29.10;71.50;;;;;;5063766;28;20008;-49
2022/01/09 01:38:19;;;;;;;31.25;9.95;;;29.10;71.40;;;;;;5063914;28;20076;-49
2022/01/09 01:40:46;;;;;;;25.45;9.25;;;29.10;71.40;;;;;;5063687;28;20021;-51
2022/01/09 01:43:13;;;;;;;183.57;21.95;;;29.10;71.40;;;;;;5063930;28;20071;-55
2022/01/09 01:45:39;;;;;;;113.75;16.88;;;29.10;71.20;;;;;;5062969;28;20333;-52
2022/01/09 01:48:06;;;;;;;88.70;14.45;;;29.10;71.20;;;;;;5064245;28;20036;-49
2022/01/09 01:50:37;;;;;;;81.47;14.40;;;29.10;71.10;;;;;;5057262;28;20021;-48
2022/01/09 01:53:11;;;;;;;68.55;13.45;;;29.10;71.00;;;;;;5046125;28;20368;-55
2022/01/09 01:55:41;;;;;;;35.53;11.27;;;29.10;71.10;;;;;;5052611;28;20314;-46
2022/01/09 01:58:11;;;;;;;59.53;12.25;;;29.10;71.20;;;;;;5060247;28;20021;-56
2022/01/09 02:00:42;;;;;;;35.33;10.27;;;29.10;71.30;;;;;;5053874;28;20049;-55
2022/01/09 02:03:12;;;;;;;24.85;9.55;;;29.10;71.50;;;;;;5039407;28;20028;-56
2022/01/09 02:05:44;;;;;;;21.27;9.07;;;29.10;71.50;;;;;;5057266;28;20021;-60
2022/01/09 02:08:12;;;;;;;28.60;9.00;;;29.10;71.50;;;;;;5052062;28;20029;-58
2022/01/09 02:10:48;;;;;;;18.80;8.88;;;29.00;71.60;;;;;;5060773;28;20036;-52
2022/01/09 02:13:17;;;;;;;15.40;9.05;;;29.10;71.70;;;;;;5052105;28;20245;-50
2022/01/09 02:15:46;;;;;;;16.35;8.70;;;29.10;71.50;;;;;;5054337;28;20023;-53
2022/01/09 02:18:18;;;;;;;20.90;9.27;;;29.10;71.30;;;;;;5057902;28;20037;-53
2022/01/09 02:20:46;;;;;;;17.92;8.63;;;29.00;71.40;;;;;;5052755;28;20044;-50
2022/01/09 02:23:15;;;;;;;16.77;8.45;;;29.10;71.30;;;;;;5026156;28;20036;-51
2022/01/09 02:25:42;;;;;;;15.80;9.00;;;29.10;71.30;;;;;;5049977;28;20210;-55
2022/01/09 02:28:11;;;;;;;26.58;8.90;;;29.10;71.30;;;;;;5057591;28;20045;-50
2022/01/09 02:30:39;;;;;;;17.15;8.95;;;29.10;71.30;;;;;;5049542;28;20048;-47
2022/01/09 02:33:08;;;;;;;14.90;8.80;;;29.20;71.30;;;;;;5025635;28;20072;-50
2022/01/09 02:35:36;;;;;;;13.48;8.70;;;29.20;71.40;;;;;;5027046;28;20033;-48
2022/01/09 02:38:09;;;;;;;12.50;8.63;;;29.20;71.20;;;;;;5055846;28;20315;-54
2022/01/09 02:40:35;;;;;;;15.52;8.77;;;29.20;71.10;;;;;;5062994;28;20314;-48
2022/01/09 02:43:03;;;;;;;14.20;8.50;;;29.20;71.30;;;;;;5063638;28;20237;-55
2022/01/09 02:45:30;;;;;;;15.52;8.45;;;29.20;71.20;;;;;;5059353;28;20062;-49
2022/01/09 02:47:59;;;;;;;18.58;9.02;;;29.20;71.10;;;;;;5051675;28;20107;-54
2022/01/09 02:52:58;;;;;;;16.10;8.63;;;29.20;71.10;;;;;;5055808;28;20009;-52
2022/01/09 02:55:27;;;;;;;13.65;8.50;;;29.20;71.00;;;;;;5055339;28;20018;-54
2022/01/09 02:57:56;;;;;;;18.70;8.77;;;29.20;71.00;;;;;;5057159;28;20017;-52
2022/01/09 03:00:26;;;;;;;15.25;8.68;;;29.20;71.00;;;;;;5057421;28;20017;-48
2022/01/09 03:02:53;;;;;;;17.90;8.93;;;29.20;70.90;;;;;;5058634;28;20028;-56
2022/01/09 03:05:21;;;;;;;14.23;9.10;;;29.20;70.90;;;;;;5038102;28;20024;-54
2022/01/09 03:07:47;;;;;;;13.05;8.50;;;29.20;70.80;;;;;;5057637;28;20029;-56
2022/01/09 03:10:17;;;;;;;13.05;8.20;;;29.20;70.70;;;;;;5056015;28;20025;-54
2022/01/09 03:12:45;;;;;;;18.63;8.52;;;29.20;70.70;;;;;;5055450;28;20029;-57
2022/01/09 03:15:12;;;;;;;17.63;8.90;;;29.20;70.60;;;;;;5056719;28;20013;-55
2022/01/09 03:17:40;;;;;;;54.83;11.00;;;29.30;70.70;;;;;;5056486;28;20052;-58
2022/01/09 03:20:11;;;;;;;36.42;10.05;;;29.20;70.60;;;;;;5075484;28;20091;-55
2022/01/09 03:22:38;;;;;;;35.58;8.98;;;29.20;70.70;;;;;;5087060;28;20289;-55
2022/01/09 03:25:05;;;;;;;29.13;9.73;;;29.20;70.60;;;;;;5068304;28;20021;-49
2022/01/09 03:27:32;;;;;;;25.05;8.65;;;29.20;70.80;;;;;;5056055;28;20234;-52
2022/01/09 03:30:01;;;;;;;22.23;9.02;;;29.10;70.80;;;;;;5056904;28;20024;-52
2022/01/09 03:32:27;;;;;;;16.65;8.52;;;29.10;70.80;;;;;;5052777;28;20041;-54
2022/01/09 03:34:54;;;;;;;21.77;8.93;;;29.10;70.90;;;;;;5065054;28;20037;-51
2022/01/09 03:37:21;;;;;;;17.45;9.23;;;29.10;70.90;;;;;;5066661;28;20067;-54
2022/01/09 03:39:47;;;;;;;20.50;8.55;;;29.10;70.90;;;;;;5066283;28;20021;-52
2022/01/09 03:42:14;;;;;;;17.25;9.23;;;29.10;70.90;;;;;;5066177;28;20298;-54
2022/01/09 03:44:40;;;;;;;12.02;8.77;;;29.10;70.90;;;;;;5066156;28;20024;-50
2022/01/09 03:47:07;;;;;;;14.05;8.07;;;29.10;71.00;;;;;;5066339;28;20024;-50
2022/01/09 03:49:33;;;;;;;19.65;8.80;;;29.10;71.00;;;;;;5065955;28;20344;-47
2022/01/09 03:52:00;;;;;;;14.68;8.80;;;29.10;71.00;;;;;;5066128;28;20039;-56
2022/01/09 03:54:27;;;;;;;19.27;8.40;;;29.10;71.10;;;;;;5066030;28;20013;-50
2022/01/09 03:56:54;;;;;;;14.32;8.90;;;29.10;71.10;;;;;;5065817;28;20025;-49
2022/01/09 03:59:20;;;;;;;14.50;8.50;;;29.10;71.10;;;;;;5065772;28;20019;-49
2022/01/09 04:01:47;;;;;;;16.17;8.68;;;29.10;71.20;;;;;;5065783;28;20079;-51
2022/01/09 04:04:14;;;;;;;12.63;8.73;;;29.10;71.20;;;;;;5065554;28;20032;-48
2022/01/09 04:06:46;;;;;;;12.20;8.80;;;29.10;71.40;;;;;;5065927;28;20035;-49
2022/01/09 04:09:26;;;;;;;15.70;8.02;;;29.10;71.50;;;;;;5065861;28;20056;-49
2022/01/09 04:12:03;;;;;;;10.95;8.68;;;29.10;71.50;;;;;;5065812;28;20075;-49
2022/01/09 04:14:29;;;;;;;13.45;8.20;;;29.00;71.60;;;;;;5065719;28;20258;-46
2022/01/09 04:16:57;;;;;;;11.75;8.27;;;29.00;71.70;;;;;;5065554;28;20036;-54
2022/01/09 04:19:23;;;;;;;12.68;8.25;;;29.00;71.70;;;;;;5065483;28;20031;-50
2022/01/09 04:21:50;;;;;;;13.55;8.13;;;29.00;71.80;;;;;;5065644;28;20329;-51
2022/01/09 04:24:16;;;;;;;11.38;7.90;;;29.00;71.70;;;;;;5065337;28;20035;-52
2022/01/09 04:26:43;;;;;;;11.23;8.70;;;29.00;71.80;;;;;;5065608;28;20031;-58
2022/01/09 04:29:09;;;;;;;11.82;8.25;;;29.00;71.70;;;;;;5065360;28;20025;-52
2022/01/09 04:31:36;;;;;;;13.85;7.50;;;29.00;71.70;;;;;;5065356;28;20040;-53
2022/01/09 04:34:03;;;;;;;12.88;8.32;;;29.00;71.70;;;;;;5065082;28;20100;-53
2022/01/09 04:36:29;;;;;;;8.85;8.00;;;29.00;71.70;;;;;;5065243;28;20025;-57
2022/01/09 04:38:56;;;;;;;10.25;8.13;;;29.00;71.70;;;;;;5065207;28;20021;-44
2022/01/09 04:41:23;;;;;;;11.82;8.02;;;29.00;71.80;;;;;;5065153;28;20317;-47
2022/01/09 04:43:51;;;;;;;11.35;8.23;;;29.00;71.70;;;;;;5065150;28;20087;-53
2022/01/09 04:46:27;;;;;;;12.70;8.48;;;29.00;71.70;;;;;;5065066;28;20213;-56
2022/01/09 04:48:55;;;;;;;12.55;8.40;;;29.00;71.60;;;;;;5064995;28;20104;-47
2022/01/09 04:51:22;;;;;;;9.57;7.82;;;29.00;71.70;;;;;;5064849;28;20047;-51
2022/01/09 04:53:49;;;;;;;13.88;8.10;;;29.00;71.80;;;;;;5064743;28;20327;-47
2022/01/09 04:56:15;;;;;;;15.05;8.35;;;28.90;71.70;;;;;;5064750;28;20070;-53
2022/01/09 04:58:42;;;;;;;10.35;8.27;;;28.90;71.70;;;;;;5064973;28;20187;-50
2022/01/09 05:01:08;;;;;;;10.73;8.05;;;28.90;71.70;;;;;;5064669;28;20025;-44
2022/01/09 05:03:35;;;;;;;9.73;7.68;;;28.90;71.80;;;;;;5064815;28;20306;-48
2022/01/09 05:06:02;;;;;;;10.60;8.07;;;28.90;71.80;;;;;;5063975;28;20036;-50
2022/01/09 05:08:28;;;;;;;11.65;8.27;;;28.90;71.80;;;;;;5064456;28;20025;-49
2022/01/09 05:10:55;;;;;;;9.77;8.00;;;28.90;71.80;;;;;;5064376;28;20250;-50
2022/01/09 05:13:21;;;;;;;9.30;8.35;;;28.90;71.90;;;;;;5064488;28;20021;-47
2022/01/09 05:15:48;;;;;;;11.98;7.97;;;28.80;71.80;;;;;;5063896;28;20068;-49
2022/01/09 05:18:15;;;;;;;22.10;8.40;;;28.80;71.90;;;;;;5064850;28;20213;-50
2022/01/09 05:20:43;;;;;;;11.13;8.07;;;28.80;71.90;;;;;;5064311;28;20052;-51
2022/01/09 05:23:10;;;;;;;11.05;8.23;;;28.80;72.00;;;;;;5064704;28;20024;-55
2022/01/09 05:25:37;;;;;;;10.02;8.50;;;28.80;72.10;;;;;;5064335;28;20025;-54
2022/01/09 05:28:04;;;;;;;11.90;8.75;;;28.80;72.10;;;;;;5064736;28;20059;-52
2022/01/09 05:30:30;;;;;;;11.38;8.60;;;28.80;72.00;;;;;;5064040;28;20040;-57
2022/01/09 05:32:57;;;;;;;9.60;7.60;;;28.80;72.10;;;;;;5064211;28;20102;-47
2022/01/09 05:35:25;;;;;;;9.02;8.02;;;28.80;72.00;;;;;;5064145;28;20084;-48
2022/01/09 05:37:52;;;;;;;9.98;8.00;;;28.80;72.10;;;;;;5063807;28;20092;-53
2022/01/09 05:40:19;;;;;;;9.85;7.82;;;28.80;72.10;;;;;;5064013;28;20029;-51
2022/01/09 05:42:47;;;;;;;13.73;8.48;;;28.80;72.30;;;;;;5064440;28;20031;-50
2022/01/09 05:45:17;;;;;;;11.68;8.00;;;28.80;72.30;;;;;;5063863;28;20266;-50
2022/01/09 05:47:44;;;;;;;9.80;7.97;;;28.70;72.20;;;;;;5063821;28;20060;-55
2022/01/09 05:50:11;;;;;;;11.30;8.10;;;28.70;72.40;;;;;;5063960;28;20074;-50
2022/01/09 05:52:37;;;;;;;15.82;7.75;;;28.70;72.30;;;;;;5064046;28;20024;-54
2022/01/09 05:55:04;;;;;;;10.80;7.55;;;28.70;72.50;;;;;;5064080;28;20375;-50
2022/01/09 05:57:31;;;;;;;12.38;8.48;;;28.70;72.50;;;;;;5064249;28;20029;-50
2022/01/09 05:59:58;;;;;;;10.27;8.00;;;28.70;72.50;;;;;;5063663;28;20017;-52
2022/01/09 06:02:24;;;;;;;11.52;8.20;;;28.70;72.60;;;;;;5064062;28;20380;-55
2022/01/09 06:04:51;;;;;;;10.40;7.68;;;28.70;72.60;;;;;;5063749;28;20080;-49
2022/01/09 06:07:17;;;;;;;9.75;8.10;;;28.70;72.70;;;;;;5064023;28;20036;-55
2022/01/09 06:09:44;;;;;;;10.35;8.05;;;28.70;72.70;;;;;;5063616;28;20041;-60
2022/01/09 06:12:11;;;;;;;11.43;7.70;;;28.70;72.80;;;;;;5063831;28;20075;-50
2022/01/09 06:14:37;;;;;;;11.60;8.07;;;28.70;72.90;;;;;;5063698;28;20084;-46
2022/01/09 06:17:05;;;;;;;10.15;7.82;;;28.70;73.10;;;;;;5063656;28;20021;-47
2022/01/09 06:19:31;;;;;;;10.85;8.20;;;28.70;73.10;;;;;;5063550;28;20020;-50
2022/01/09 06:21:58;;;;;;;9.70;7.95;;;28.70;73.20;;;;;;5063760;28;20037;-50
2022/01/09 06:24:24;;;;;;;11.38;7.90;;;28.70;73.20;;;;;;5063454;28;20323;-45
2022/01/09 06:26:51;;;;;;;11.10;7.82;;;28.70;73.20;;;;;;5065581;28;20248;-58
2022/01/09 06:29:19;;;;;;;10.00;7.97;;;28.70;73.30;;;;;;5067693;28;20021;-50
2022/01/09 06:31:45;;;;;;;11.90;7.88;;;28.60;73.30;;;;;;5067517;28;20037;-51
2022/01/09 06:34:13;;;;;;;13.05;8.20;;;28.70;73.50;;;;;;5067381;28;20057;-52
2022/01/09 06:36:40;;;;;;;8.95;8.05;;;28.70;73.50;;;;;;5067622;28;20070;-50
2022/01/09 06:39:08;;;;;;;9.32;7.88;;;28.60;73.50;;;;;;5067334;28;20019;-54
2022/01/09 06:41:34;;;;;;;9.63;8.35;;;28.60;73.50;;;;;;5067511;28;20356;-52
2022/01/09 06:44:01;;;;;;;11.93;8.10;;;28.60;73.50;;;;;;5067387;28;20225;-53
2022/01/09 06:46:27;;;;;;;8.98;7.45;;;28.60;73.60;;;;;;5067103;28;20256;-53
2022/01/09 06:48:54;;;;;;;9.70;7.85;;;28.60;73.70;;;;;;5067293;28;20047;-50
2022/01/09 06:51:20;;;;;;;11.48;8.65;;;28.60;73.80;;;;;;5067220;28;20025;-50
2022/01/09 06:53:47;;;;;;;10.50;7.78;;;28.60;73.90;;;;;;5067099;28;20013;-57
2022/01/09 06:56:14;;;;;;;14.57;8.27;;;28.60;74.10;;;;;;5067156;28;20201;-53
2022/01/09 06:58:40;;;;;;;9.32;8.20;;;28.60;74.20;;;;;;5067117;28;20027;-59
2022/01/09 07:01:07;;;;;;;12.00;8.43;;;28.60;74.30;;;;;;5066902;28;20021;-54
2022/01/09 07:03:34;;;;;;;11.98;8.52;;;28.60;74.40;;;;;;5066982;28;20025;-55
2022/01/09 07:06:00;;;;;;;11.35;8.52;;;28.60;74.60;;;;;;5066994;28;20031;-53
2022/01/09 07:08:28;;;;;;;13.65;8.55;;;28.60;74.60;;;;;;5066814;28;20356;-47
2022/01/09 07:10:55;;;;;;;9.02;7.95;;;28.60;74.90;;;;;;5066636;28;20087;-45
2022/01/09 07:13:22;;;;;;;9.32;8.23;;;28.60;75.50;;;;;;5066769;28;20302;-49
2022/01/09 07:15:48;;;;;;;11.77;8.18;;;28.60;75.60;;;;;;5066615;28;20020;-46
2022/01/09 07:18:15;;;;;;;8.95;7.97;;;28.60;75.10;;;;;;5067144;28;20025;-49
2022/01/09 07:20:41;;;;;;;10.25;7.90;;;28.60;75.10;;;;;;5066708;28;20017;-55
2022/01/09 07:23:08;;;;;;;10.48;7.95;;;28.60;75.10;;;;;;5066983;28;20091;-46
2022/01/09 07:25:35;;;;;;;10.95;8.38;;;28.60;75.20;;;;;;5066595;28;20016;-51
2022/01/09 07:28:02;;;;;;;11.05;7.85;;;28.50;75.30;;;;;;5066995;28;20039;-52
2022/01/09 07:30:29;;;;;;;11.38;8.55;;;28.50;75.40;;;;;;5066358;28;20076;-50
2022/01/09 07:32:57;;;;;;;10.82;8.77;;;28.50;75.40;;;;;;5066112;28;20114;-49
2022/01/09 07:35:23;;;;;;;12.80;8.48;;;28.50;75.70;;;;;;5066357;28;20088;-53
2022/01/09 07:37:50;;;;;;;15.60;8.25;;;28.50;75.90;;;;;;5066254;28;20056;-53
2022/01/09 07:40:18;;;;;;;13.20;8.75;;;28.50;76.00;;;;;;5066325;28;20033;-54
2022/01/09 07:42:46;;;;;;;10.10;8.52;;;28.50;76.10;;;;;;5066523;28;20031;-58
2022/01/09 07:45:14;;;;;;;10.95;8.50;;;28.50;76.10;;;;;;5066046;28;20083;-51
2022/01/09 07:47:41;;;;;;;11.45;8.63;;;28.50;76.10;;;;;;5066490;28;20093;-49
2022/01/09 07:50:10;;;;;;;10.02;8.38;;;28.50;76.20;;;;;;5066131;28;20333;-50
2022/01/09 07:52:38;;;;;;;11.52;8.25;;;28.50;76.30;;;;;;5066207;28;20100;-53
2022/01/09 07:55:06;;;;;;;9.80;8.25;;;28.40;76.20;;;;;;5066055;28;20281;-48
2022/01/09 07:57:33;;;;;;;10.05;8.48;;;28.40;76.20;;;;;;5066460;28;20379;-45
2022/01/09 08:00:03;;;;;;;9.75;8.48;;;28.40;76.20;;;;;;5065802;28;20306;-56
2022/01/09 08:02:30;;;;;;;11.93;8.60;;;28.40;76.40;;;;;;5066183;28;20032;-48
2022/01/09 08:04:56;;;;;;;12.00;8.85;;;28.40;76.30;;;;;;5065860;28;20020;-50
2022/01/09 08:07:23;;;;;;;12.70;9.32;;;28.40;76.40;;;;;;5066011;28;20025;-52
2022/01/09 08:09:49;;;;;;;11.13;8.95;;;28.40;76.40;;;;;;5065765;28;20024;-49
2022/01/09 08:12:16;;;;;;;12.60;8.52;;;28.40;76.40;;;;;;5065934;28;20028;-47
2022/01/09 08:14:43;;;;;;;12.02;8.48;;;28.40;76.50;;;;;;5065517;28;20012;-51
2022/01/09 08:17:10;;;;;;;12.52;8.38;;;28.40;76.50;;;;;;5065954;28;20024;-47
2022/01/09 08:19:36;;;;;;;11.25;8.60;;;28.40;76.60;;;;;;5065623;28;20021;-51
2022/01/09 08:22:04;;;;;;;11.05;8.70;;;28.40;76.50;;;;;;5065733;28;20032;-54
2022/01/09 08:24:31;;;;;;;11.73;8.65;;;28.40;76.50;;;;;;5065708;28;20032;-50
2022/01/09 08:26:58;;;;;;;11.52;8.77;;;28.40;76.50;;;;;;5065571;28;20029;-51
2022/01/09 08:29:24;;;;;;;12.57;8.23;;;28.40;76.40;;;;;;5065433;28;20020;-53
2022/01/09 08:31:51;;;;;;;11.98;8.43;;;28.40;76.50;;;;;;5065189;28;20036;-47
2022/01/09 08:34:18;;;;;;;12.18;8.73;;;28.40;76.50;;;;;;5065264;28;20037;-53
2022/01/09 08:36:44;;;;;;;12.15;8.25;;;28.40;76.50;;;;;;5065369;28;20021;-49
2022/01/09 08:39:11;;;;;;;14.70;8.07;;;28.40;76.60;;;;;;5065130;28;20306;-51
2022/01/09 08:41:38;;;;;;;11.82;8.55;;;28.40;76.70;;;;;;5065287;28;20280;-54
2022/01/09 08:44:06;;;;;;;12.18;7.97;;;28.40;76.70;;;;;;5065141;28;20016;-54
2022/01/09 08:46:34;;;;;;;11.95;8.05;;;28.30;76.80;;;;;;5064986;28;20242;-53
2022/01/09 08:49:02;;;;;;;11.40;8.27;;;28.40;76.90;;;;;;5064249;28;20040;-54
2022/01/09 08:51:29;;;;;;;14.55;8.70;;;28.40;77.00;;;;;;5064320;28;20037;-48
2022/01/09 08:53:56;;;;;;;14.02;8.85;;;28.30;77.00;;;;;;5064805;28;20376;-50
2022/01/09 08:56:25;;;;;;;14.38;8.10;;;28.30;77.10;;;;;;5064932;28;20054;-52
2022/01/09 08:58:52;;;;;;;11.77;8.25;;;28.30;77.10;;;;;;5064816;28;20017;-57
2022/01/09 09:01:19;;;;;;;14.25;8.73;;;28.30;77.20;;;;;;5065037;28;20037;-54
2022/01/09 09:03:45;;;;;;;12.75;8.70;;;28.30;77.10;;;;;;5064934;28;20021;-50
2022/01/09 09:06:15;;;;;;;11.27;8.60;;;28.30;77.20;;;;;;5064642;28;20024;-53
2022/01/09 09:08:43;;;;;;;10.25;8.23;;;28.30;77.30;;;;;;5064654;28;20024;-51
2022/01/09 09:11:11;;;;;;;11.85;8.65;;;28.30;77.30;;;;;;5064711;28;20033;-53
2022/01/09 09:13:40;;;;;;;13.40;8.88;;;28.30;77.40;;;;;;5064430;28;20059;-50
2022/01/09 09:16:08;;;;;;;12.75;8.57;;;28.30;77.60;;;;;;5064445;28;20308;-59
2022/01/09 09:18:35;;;;;;;13.02;9.38;;;28.30;78.00;;;;;;5064347;28;20021;-54
2022/01/09 09:21:01;;;;;;;11.50;9.00;;;28.30;78.40;;;;;;5064246;28;20028;-46
2022/01/09 09:23:28;;;;;;;15.55;9.38;;;28.20;78.80;;;;;;5064322;28;20029;-46
2022/01/09 09:25:55;;;;;;;14.45;9.30;;;28.20;79.00;;;;;;5064298;28;20317;-54
2022/01/09 09:28:21;;;;;;;12.30;9.82;;;28.20;79.10;;;;;;5064230;28;20054;-55
2022/01/09 09:30:48;;;;;;;10.93;9.20;;;28.20;79.20;;;;;;5064220;28;20064;-50
2022/01/09 09:33:14;;;;;;;15.77;9.80;;;28.20;79.30;;;;;;5064319;28;20045;-49
2022/01/09 09:35:41;;;;;;;14.85;9.90;;;28.10;79.40;;;;;;5064186;28;20017;-53
2022/01/09 09:38:07;;;;;;;13.43;10.05;;;28.10;79.40;;;;;;5064531;28;20218;-54
2022/01/09 09:40:34;;;;;;;13.13;10.07;;;28.10;79.60;;;;;;5064199;28;20051;-55
2022/01/09 09:43:02;;;;;;;15.38;10.27;;;28.10;79.70;;;;;;5064506;28;20067;-58
2022/01/09 09:45:28;;;;;;;12.13;9.70;;;28.10;79.90;;;;;;5063908;28;20028;-53
2022/01/09 09:47:55;;;;;;;13.00;9.93;;;28.10;80.10;;;;;;5064518;28;20029;-52
2022/01/09 09:50:22;;;;;;;10.55;9.45;;;28.00;80.10;;;;;;5063890;28;20017;-50
2022/01/09 09:52:49;;;;;;;13.02;9.63;;;28.00;80.10;;;;;;5064076;28;20033;-54
2022/01/09 09:55:17;;;;;;;16.13;9.32;;;28.00;80.20;;;;;;5063897;28;20029;-56
2022/01/09 09:57:45;;;;;;;11.63;9.60;;;28.00;80.20;;;;;;5064370;28;20035;-50
2022/01/09 10:00:18;;;;;;;11.73;9.15;;;28.00;80.20;;;;;;5063565;28;20213;-50
2022/01/09 10:02:45;;;;;;;10.75;9.65;;;28.00;80.20;;;;;;5064161;28;20032;-55
2022/01/09 10:05:14;;;;;;;13.40;9.93;;;28.00;80.10;;;;;;5063642;28;20066;-51
2022/01/09 10:07:41;;;;;;;13.88;9.38;;;28.00;80.10;;;;;;5064124;28;20029;-52
2022/01/09 10:10:14;;;;;;;11.15;8.70;;;28.00;80.20;;;;;;5063760;28;20411;-51
2022/01/09 10:12:42;;;;;;;13.18;9.93;;;28.00;80.30;;;;;;5063886;28;20075;-53
2022/01/09 10:15:12;;;;;;;11.43;9.73;;;27.90;80.30;;;;;;5063632;28;20013;-61
2022/01/09 10:17:47;;;;;;;10.57;9.48;;;28.00;80.60;;;;;;5063965;28;20032;-51
2022/01/09 10:20:17;;;;;;;11.05;9.77;;;27.90;80.50;;;;;;5063615;28;20020;-52
2022/01/09 10:22:48;;;;;;;10.88;9.10;;;27.90;80.60;;;;;;5062736;28;20033;-52
2022/01/09 10:25:30;;;;;;;13.27;9.68;;;27.90;80.60;;;;;;5063467;28;20058;-49
2022/01/09 10:28:16;;;;;;;16.80;9.35;;;27.90;80.70;;;;;;5063971;28;20033;-50
2022/01/09 10:30:46;;;;;;;39.20;11.57;;;27.90;80.90;;;;;;5063272;28;20029;-55
2022/01/09 10:33:15;;;;;;;39.28;12.50;;;27.90;80.80;;;;;;5063585;28;20045;-50
2022/01/09 10:35:44;;;;;;;43.70;12.43;;;27.90;80.90;;;;;;5063321;28;20044;-51
2022/01/09 10:38:27;;;;;;;32.08;11.55;;;27.90;81.00;;;;;;5063928;28;20033;-50
2022/01/09 10:41:03;;;;;;;26.30;12.25;;;27.90;81.10;;;;;;5063202;28;20200;-55
2022/01/09 10:43:41;;;;;;;27.85;11.68;;;28.00;81.30;;;;;;5063313;28;20045;-54
2022/01/09 10:46:09;;;;;;;25.42;11.52;;;27.90;81.40;;;;;;5063251;28;20329;-51
2022/01/09 10:48:37;;;;;;;27.60;12.25;;;27.90;81.40;;;;;;5063172;28;20017;-51
2022/01/09 10:51:05;;;;;;;20.33;11.30;;;27.90;81.50;;;;;;5063169;28;20021;-48
2022/01/09 10:53:34;;;;;;;20.00;11.90;;;27.90;81.60;;;;;;5063300;28;20012;-53
2022/01/09 10:56:04;;;;;;;18.83;11.35;;;27.90;81.70;;;;;;5063221;28;20088;-54
2022/01/09 10:58:34;;;;;;;23.88;12.57;;;27.80;81.80;;;;;;5063340;28;20264;-57
2022/01/09 11:01:11;;;;;;;21.75;11.25;;;27.90;81.80;;;;;;5062995;28;20028;-57
2022/01/09 11:03:40;;;;;;;18.27;11.85;;;27.80;81.70;;;;;;5063159;28;20044;-54
2022/01/09 11:06:09;;;;;;;18.20;11.07;;;27.80;81.70;;;;;;5063195;28;20318;-51
2022/01/09 11:08:37;;;;;;;14.68;10.50;;;27.90;81.80;;;;;;5062885;28;20071;-53
2022/01/09 11:11:12;;;;;;;16.15;10.60;;;27.80;81.60;;;;;;5063080;28;20024;-58
2022/01/09 11:13:47;;;;;;;16.48;10.30;;;27.80;81.50;;;;;;5065708;28;20088;-48
2022/01/09 11:19:03;;;;;;;17.10;11.20;;;27.80;81.40;;;;;;5066531;28;20016;-52
2022/01/09 11:21:30;;;;;;;17.90;11.15;;;27.80;81.20;;;;;;5066776;28;20032;-52
2022/01/09 11:24:16;;;;;;;20.83;11.82;;;27.80;81.10;;;;;;5066653;28;20088;-55
2022/01/09 11:27:01;;;;;;;18.15;12.20;;;27.70;81.00;;;;;;5065459;28;20033;-53
2022/01/09 11:29:43;;;;;;;15.52;11.05;;;27.80;80.90;;;;;;5066401;28;20017;-50
2022/01/09 11:32:32;;;;;;;18.15;11.80;;;27.80;81.50;;;;;;5066432;28;20028;-48
2022/01/09 11:35:39;;;;;;;20.55;12.07;;;27.70;80.90;;;;;;5066522;28;20033;-53
2022/01/09 11:38:23;;;;;;;16.27;10.73;;;27.70;80.70;;;;;;5039520;28;20599;-54
2022/01/09 11:40:49;;;;;;;19.20;10.88;;;27.70;80.70;;;;;;5066412;28;20206;-49
2022/01/09 11:43:18;;;;;;;15.30;10.82;;;27.70;80.40;;;;;;5066179;28;20035;-52
2022/01/09 11:46:11;;;;;;;17.73;10.63;;;27.70;80.30;;;;;;5065386;28;20376;-55
2022/01/09 11:48:52;;;;;;;15.98;10.07;;;27.70;80.30;;;;;;5062686;28;20044;-50
2022/01/09 11:51:26;;;;;;;16.20;9.27;;;27.70;80.30;;;;;;5066200;28;20051;-50
2022/01/09 11:53:56;;;;;;;16.30;9.48;;;27.70;80.20;;;;;;5045984;28;20027;-53
2022/01/09 11:56:47;;;;;;;13.48;9.25;;;27.60;80.10;;;;;;5046013;28;20094;-51
2022/01/09 11:59:28;;;;;;;15.98;9.60;;;27.60;79.80;;;;;;5065205;28;20123;-50
2022/01/09 12:02:05;;;;;;;17.37;9.10;;;27.60;79.60;;;;;;5065554;28;20052;-48
2022/01/09 12:04:37;;;;;;;23.58;10.13;;;27.60;79.50;;;;;;5065278;28;20363;-48
2022/01/09 12:07:08;;;;;;;;;;;27.60;79.30;;;;;;5066481;28;20074;-50
2022/01/09 12:09:51;;;;;;;16.63;9.32;;;27.60;79.20;;;;;;5065616;28;19901;-52
2022/01/09 12:12:20;;;;;;;26.42;9.65;;;27.60;79.10;;;;;;5065759;28;20186;-47
2022/01/09 12:15:02;;;;;;;15.00;8.73;;;27.60;79.00;;;;;;5065743;28;20016;-53
2022/01/09 12:17:41;;;;;;;16.73;9.55;;;27.50;78.90;;;;;;5065763;28;20028;-53
2022/01/09 12:20:13;;;;;;;14.75;9.02;;;27.50;79.40;;;;;;5065395;28;20013;-48
2022/01/09 12:25:19;;;;;;;14.32;9.18;;;27.50;78.90;;;;;;5052950;28;20026;-60
2022/01/09 12:27:48;;;;;;;17.77;10.57;;;27.40;78.80;;;;;;5045843;28;20033;-52
2022/01/09 12:30:55;;;;;;;17.90;10.00;;;27.40;78.90;;;;;;5045353;28;20021;-54
2022/01/09 12:33:25;;;;;;;12.45;9.63;;;27.40;79.00;;;;;;5006892;28;20053;-51
2022/01/09 12:36:06;;;;;;;17.83;9.55;;;27.40;79.30;;;;;;5045304;28;20021;-53
2022/01/09 12:38:41;;;;;;;16.63;10.07;;;27.40;79.70;;;;;;5045291;28;20041;-55
2022/01/09 12:41:10;;;;;;;24.05;10.43;;;27.40;79.20;;;;;;5045000;28;20307;-52
2022/01/09 12:43:41;;;;;;;16.17;10.73;;;27.40;79.20;;;;;;5045239;28;20021;-53
2022/01/09 12:46:17;;;;;;;20.90;10.45;;;27.40;79.30;;;;;;5044989;28;20056;-54
2022/01/09 12:48:57;;;;;;;14.23;9.80;;;27.30;79.20;;;;;;5045053;28;20039;-54
2022/01/09 12:51:25;;;;;;;17.48;11.85;;;27.30;79.20;;;;;;5044772;28;20025;-58
2022/01/09 12:53:56;;;;;;;31.27;12.63;;;27.30;79.30;;;;;;5045745;28;20021;-48